createdAt,value
2023-02-15T00:01:20.888Z,102714.47
2023-02-15T00:03:48.702Z,102712.94
2023-02-15T00:06:15.033Z,102713.72
2023-02-15T00:08:41.407Z,102705.09
2023-02-15T00:11:08.224Z,102698.72
2023-02-15T00:13:36.342Z,102689.50
2023-02-15T00:16:03.510Z,102692.38
2023-02-15T00:18:30.219Z,102698.88
2023-02-15T00:20:56.536Z,102694.66
2023-02-15T00:23:22.877Z,102691.78
2023-02-15T00:25:49.228Z,102688.91
2023-02-15T00:28:15.561Z,102686.00
2023-02-15T00:30:41.935Z,102682.97
2023-02-15T00:33:08.342Z,102689.50
2023-02-15T00:35:34.659Z,102687.22
2023-02-15T00:38:01.001Z,102676.47
2023-02-15T00:40:27.325Z,102690.88
2023-02-15T00:42:55.086Z,102685.84
2023-02-15T00:45:22.227Z,102696.00
2023-02-15T00:47:48.574Z,102691.78
2023-02-15T00:50:15.265Z,102692.53
2023-02-15T00:52:41.769Z,102688.28
2023-02-15T00:55:08.124Z,102686.00
2023-02-15T00:57:34.456Z,102675.84
2023-02-15T01:00:00.788Z,102671.47
2023-02-15T01:02:27.119Z,102664.97
2023-02-15T01:04:53.543Z,102669.94
2023-02-15T01:07:19.938Z,102674.94
2023-02-15T01:09:46.262Z,102665.41
2023-02-15T01:12:12.583Z,102661.16
2023-02-15T01:14:38.902Z,102666.91
2023-02-15T01:17:05.244Z,102666.31
2023-02-15T01:19:35.233Z,102663.44
2023-02-15T01:22:01.571Z,102655.56
2023-02-15T01:24:27.896Z,102648.47
2023-02-15T01:26:54.243Z,102644.22
2023-02-15T01:29:20.568Z,102647.09
2023-02-15T01:31:47.046Z,102654.97
2023-02-15T01:34:14.447Z,102642.72
2023-02-15T01:36:40.771Z,102651.94
2023-02-15T01:39:08.721Z,102639.69
2023-02-15T01:41:35.063Z,102634.69
2023-02-15T01:44:02.167Z,102632.41
2023-02-15T01:46:30.090Z,102633.19
2023-02-15T01:49:01.286Z,102625.91
2023-02-15T01:51:28.344Z,102613.63
2023-02-15T01:53:59.293Z,102613.63
2023-02-15T01:56:26.139Z,102602.13
2023-02-15T01:58:53.387Z,102602.13
2023-02-15T02:01:19.793Z,102599.41
2023-02-15T02:04:04.896Z,102587.91
2023-02-15T02:06:31.613Z,102583.66
2023-02-15T02:08:57.934Z,102589.41
2023-02-15T02:11:24.771Z,102582.16
2023-02-15T02:13:51.326Z,102583.66
2023-02-15T02:16:23.678Z,102582.16
2023-02-15T02:19:08.761Z,102586.38
2023-02-15T02:21:55.374Z,102586.38
2023-02-15T02:24:40.488Z,102582.00
2023-02-15T02:27:23.903Z,102580.50
2023-02-15T02:30:02.499Z,102572.47
2023-02-15T02:32:32.568Z,102577.63
2023-02-15T02:35:02.434Z,102568.84
2023-02-15T02:37:31.784Z,102563.09
2023-02-15T02:40:01.950Z,102561.13
2023-02-15T02:42:36.243Z,102567.63
2023-02-15T02:45:14.410Z,102565.50
2023-02-15T02:47:56.273Z,102556.13
2023-02-15T02:50:23.787Z,102563.38
2023-02-15T02:52:50.821Z,102556.13
2023-02-15T02:55:22.151Z,102561.13
2023-02-15T02:58:15.097Z,102553.09
2023-02-15T03:00:45.499Z,102556.56
2023-02-15T03:03:17.792Z,102550.06
2023-02-15T03:05:45.449Z,102545.06
2023-02-15T03:08:13.130Z,102539.31
2023-02-15T03:10:40.690Z,102540.09
2023-02-15T03:13:07.061Z,102540.09
2023-02-15T03:15:56.519Z,102532.22
2023-02-15T03:18:23.700Z,102537.38
2023-02-15T03:20:50.035Z,102531.63
2023-02-15T03:23:17.945Z,102528.75
2023-02-15T03:25:45.069Z,102531.63
2023-02-15T03:28:16.584Z,102527.97
2023-02-15T03:30:43.194Z,102520.72
2023-02-15T03:33:09.548Z,102514.22
2023-02-15T03:35:46.468Z,102516.31
2023-02-15T03:38:12.812Z,102519.19
2023-02-15T03:40:57.965Z,102515.56
2023-02-15T03:43:24.232Z,102510.56
2023-02-15T03:45:57.622Z,102508.59
2023-02-15T03:48:34.405Z,102509.34
2023-02-15T03:51:20.618Z,102519.50
2023-02-15T03:53:46.953Z,102515.84
2023-02-15T03:56:13.272Z,102517.34
2023-02-15T03:58:58.462Z,102507.38
2023-02-15T04:01:45.508Z,102515.41
2023-02-15T04:04:22.276Z,102507.38
2023-02-15T04:06:49.508Z,102507.38
2023-02-15T04:09:34.694Z,102503.13
2023-02-15T04:12:01.048Z,102493.16
2023-02-15T04:14:45.848Z,102505.25
2023-02-15T04:17:12.379Z,102501.63
2023-02-15T04:19:57.473Z,102494.22
2023-02-15T04:22:42.270Z,102498.59
2023-02-15T04:25:14.548Z,102493.44
2023-02-15T04:27:41.706Z,102492.84
2023-02-15T04:30:08.405Z,102487.09
2023-02-15T04:32:35.168Z,102481.34
2023-02-15T04:35:01.522Z,102488.59
2023-02-15T04:37:27.859Z,102495.88
2023-02-15T04:39:54.170Z,102477.88
2023-02-15T04:42:20.500Z,102475.75
2023-02-15T04:44:46.905Z,102470.00
2023-02-15T04:47:13.237Z,102470.75
2023-02-15T04:49:39.555Z,102462.13
2023-02-15T04:52:05.899Z,102454.88
2023-02-15T04:54:32.262Z,102447.00
2023-02-15T04:56:58.571Z,102449.88
2023-02-15T04:59:24.892Z,102435.34
2023-02-15T05:01:51.215Z,102431.09
2023-02-15T05:04:17.609Z,102433.97
2023-02-15T05:06:43.960Z,102437.63
2023-02-15T05:09:11.542Z,102425.34
2023-02-15T05:11:37.852Z,102433.38
2023-02-15T05:14:04.192Z,102436.84
2023-02-15T05:16:30.567Z,102433.38
2023-02-15T05:18:56.914Z,102438.38
2023-02-15T05:21:23.240Z,102436.84
2023-02-15T05:23:49.564Z,102440.50
2023-02-15T05:26:38.386Z,102432.63
2023-02-15T05:29:04.718Z,102429.72
2023-02-15T05:31:31.376Z,102426.09
2023-02-15T05:33:58.033Z,102426.84
2023-02-15T05:36:24.360Z,102419.72
2023-02-15T05:38:50.693Z,102428.34
2023-02-15T05:41:17.010Z,102425.94
2023-02-15T05:43:43.318Z,102415.19
2023-02-15T05:46:09.671Z,102412.31
2023-02-15T05:48:36.024Z,102412.75
2023-02-15T05:51:03.518Z,102413.78
2023-02-15T05:53:30.013Z,102425.66
2023-02-15T05:56:00.288Z,102414.97
2023-02-15T05:58:27.569Z,102417.06
2023-02-15T06:00:54.152Z,102418.25
2023-02-15T06:03:20.551Z,102422.03
2023-02-15T06:05:46.993Z,102416.16
2023-02-15T06:08:13.343Z,102419.63
2023-02-15T06:10:41.005Z,102415.69
2023-02-15T06:13:07.363Z,102404.31
2023-02-15T06:15:33.716Z,102410.22
2023-02-15T06:18:00.063Z,102413.25
2023-02-15T06:20:26.390Z,102407.50
2023-02-15T06:22:52.730Z,102408.25
2023-02-15T06:25:19.629Z,102411.28
2023-02-15T06:27:45.978Z,102394.78
2023-02-15T06:30:12.536Z,102403.41
2023-02-15T06:32:38.900Z,102406.28
2023-02-15T06:35:05.316Z,102400.53
2023-02-15T06:37:31.688Z,102400.09
2023-02-15T06:39:58.013Z,102407.97
2023-02-15T06:42:24.562Z,102411.59
2023-02-15T06:44:50.905Z,102404.44
2023-02-15T06:47:17.230Z,102403.84
2023-02-15T06:49:43.561Z,102408.22
2023-02-15T06:52:09.892Z,102407.31
2023-02-15T06:54:36.238Z,102411.59
2023-02-15T06:57:02.558Z,102402.19
2023-02-15T06:59:28.894Z,102402.94
2023-02-15T07:01:55.266Z,102405.09
2023-02-15T07:04:21.694Z,102409.47
2023-02-15T07:06:48.023Z,102400.81
2023-02-15T07:09:14.379Z,102401.56
2023-02-15T07:11:59.482Z,102405.34
2023-02-15T07:14:27.634Z,102400.38
2023-02-15T07:16:55.548Z,102403.84
2023-02-15T07:19:21.910Z,102399.25
2023-02-15T07:21:48.244Z,102394.03
2023-02-15T07:24:14.641Z,102390.94
2023-02-15T07:26:40.959Z,102387.41
2023-02-15T07:29:07.300Z,102390.47
2023-02-15T07:31:33.657Z,102384.00
2023-02-15T07:33:59.996Z,102381.47
2023-02-15T07:36:26.372Z,102380.72
2023-02-15T07:38:52.698Z,102385.63
2023-02-15T07:41:19.012Z,102368.69
2023-02-15T07:43:45.505Z,102373.31
2023-02-15T07:46:15.661Z,102378.75
2023-02-15T07:48:42.184Z,102368.66
2023-02-15T07:51:08.925Z,102363.97
2023-02-15T07:53:35.718Z,102360.19
2023-02-15T07:56:02.805Z,102363.97
2023-02-15T07:58:47.818Z,102362.78
2023-02-15T08:01:14.574Z,102362.00
2023-02-15T08:03:41.041Z,102355.81
2023-02-15T08:06:07.493Z,102353.25
2023-02-15T08:08:37.049Z,102354.75
2023-02-15T08:11:22.895Z,102345.84
2023-02-15T08:13:56.029Z,102345.84
2023-02-15T08:16:28.555Z,102342.19
2023-02-15T08:18:54.912Z,102342.66
2023-02-15T08:21:23.302Z,102339.19
2023-02-15T08:23:51.580Z,102337.38
2023-02-15T08:26:18.595Z,102351.63
2023-02-15T08:28:45.315Z,102344.38
2023-02-15T08:31:12.214Z,102342.00
2023-02-15T08:33:39.059Z,102333.41
2023-02-15T08:36:06.052Z,102326.34
2023-02-15T08:38:33.594Z,102319.38
2023-02-15T08:41:32.380Z,102324.19
2023-02-15T08:43:59.523Z,102316.78
2023-02-15T08:46:26.602Z,102321.34
2023-02-15T08:48:52.928Z,102323.72
2023-02-15T08:51:20.042Z,102313.78
2023-02-15T08:53:47.316Z,102313.78
2023-02-15T08:56:13.652Z,102316.16
2023-02-15T08:58:40.000Z,102320.09
2023-02-15T09:01:09.979Z,102313.00
2023-02-15T09:03:36.364Z,102316.03
2023-02-15T09:06:02.742Z,102316.91
2023-02-15T09:08:29.092Z,102314.22
2023-02-15T09:10:55.437Z,102308.75
2023-02-15T09:13:21.782Z,102303.78
2023-02-15T09:15:48.156Z,102297.25
2023-02-15T09:18:17.968Z,102303.78
2023-02-15T09:20:45.358Z,102299.53
2023-02-15T09:23:21.911Z,102295.28
2023-02-15T09:25:53.031Z,102301.00
2023-02-15T09:28:19.391Z,102305.28
2023-02-15T09:30:45.802Z,102301.78
2023-02-15T09:33:12.196Z,102303.88
2023-02-15T09:35:38.519Z,102306.91
2023-02-15T09:38:04.853Z,102302.69
2023-02-15T09:40:32.400Z,102305.56
2023-02-15T09:43:18.913Z,102298.59
2023-02-15T09:45:52.452Z,102297.97
2023-02-15T09:48:22.666Z,102293.13
2023-02-15T09:50:51.646Z,102294.63
2023-02-15T09:53:27.001Z,102298.25
2023-02-15T09:55:59.767Z,102297.50
2023-02-15T09:58:32.255Z,102299.47
2023-02-15T10:01:11.187Z,102302.06
2023-02-15T10:03:40.629Z,102292.06
2023-02-15T10:06:06.916Z,102302.66
2023-02-15T10:08:39.943Z,102295.56
2023-02-15T10:11:35.283Z,102293.72
2023-02-15T10:14:09.093Z,102292.19
2023-02-15T10:16:35.442Z,102293.84
2023-02-15T10:19:04.578Z,102288.09
2023-02-15T10:21:40.254Z,102283.13
2023-02-15T10:24:14.817Z,102282.47
2023-02-15T10:26:45.091Z,102274.63
2023-02-15T10:29:21.276Z,102285.81
2023-02-15T10:31:51.882Z,102275.72
2023-02-15T10:34:23.262Z,102278.94
2023-02-15T10:36:54.076Z,102268.47
2023-02-15T10:39:24.121Z,102268.72
2023-02-15T10:42:00.568Z,102269.28
2023-02-15T10:44:30.783Z,102268.78
2023-02-15T10:47:06.093Z,102261.69
2023-02-15T10:49:44.621Z,102255.03
2023-02-15T10:52:15.307Z,102253.81
2023-02-15T10:54:41.615Z,102244.97
2023-02-15T10:57:12.140Z,102245.91
2023-02-15T10:59:38.409Z,102246.38
2023-02-15T11:02:08.757Z,102243.34
2023-02-15T11:04:52.329Z,102232.72
2023-02-15T11:07:24.139Z,102235.59
2023-02-15T11:09:51.872Z,102228.31
2023-02-15T11:12:19.896Z,102229.13
2023-02-15T11:15:05.428Z,102223.38
2023-02-15T11:17:36.372Z,102217.47
2023-02-15T11:20:21.521Z,102222.00
2023-02-15T11:22:48.530Z,102219.28
2023-02-15T11:25:29.610Z,102219.00
2023-02-15T11:27:55.924Z,102214.88
2023-02-15T11:30:23.229Z,102214.88
2023-02-15T11:32:51.120Z,102205.50
2023-02-15T11:35:25.651Z,102202.63
2023-02-15T11:37:54.144Z,102199.16
2023-02-15T11:40:23.075Z,102202.03
2023-02-15T11:42:52.427Z,102201.59
2023-02-15T11:45:20.966Z,102190.09
2023-02-15T11:47:47.297Z,102190.09
2023-02-15T11:50:18.779Z,102195.38
2023-02-15T11:52:45.096Z,102191.13
2023-02-15T11:55:15.504Z,102188.38
2023-02-15T11:57:43.093Z,102179.00
2023-02-15T12:00:15.604Z,102193.38
2023-02-15T12:02:43.325Z,102182.63
2023-02-15T12:05:13.284Z,102178.38
2023-02-15T12:07:44.418Z,102167.66
2023-02-15T12:10:14.956Z,102167.66
2023-02-15T12:12:41.296Z,102156.13
2023-02-15T12:15:08.271Z,102166.88
2023-02-15T12:17:41.617Z,102158.38
2023-02-15T12:20:14.005Z,102159.16
2023-02-15T12:22:40.334Z,102167.91
2023-02-15T12:25:25.740Z,102158.53
2023-02-15T12:27:52.080Z,102155.03
2023-02-15T12:30:22.399Z,102160.94
2023-02-15T12:32:55.829Z,102150.78
2023-02-15T12:35:31.692Z,102147.91
2023-02-15T12:38:01.232Z,102147.16
2023-02-15T12:40:31.266Z,102144.28
2023-02-15T12:42:58.617Z,102138.53
2023-02-15T12:45:30.351Z,102134.91
2023-02-15T12:48:17.904Z,102132.16
2023-02-15T12:50:45.235Z,102124.13
2023-02-15T12:53:27.236Z,102122.78
2023-02-15T12:56:03.764Z,102123.53
2023-02-15T12:58:36.751Z,102122.00
2023-02-15T13:01:16.591Z,102114.16
2023-02-15T13:03:56.275Z,102106.88
2023-02-15T13:06:22.605Z,102107.63
2023-02-15T13:08:50.082Z,102104.63
2023-02-15T13:11:21.129Z,102101.88
2023-02-15T13:13:57.172Z,102093.25
2023-02-15T13:16:31.600Z,102093.25
2023-02-15T13:18:57.933Z,102090.38
2023-02-15T13:21:33.114Z,102090.38
2023-02-15T13:24:01.241Z,102085.38
2023-02-15T13:26:27.668Z,102077.38
2023-02-15T13:28:55.359Z,102072.38
2023-02-15T13:31:22.128Z,102078.84
2023-02-15T13:33:59.079Z,102081.75
2023-02-15T13:36:30.753Z,102074.50
2023-02-15T13:39:04.972Z,102070.09
2023-02-15T13:41:36.722Z,102064.34
2023-02-15T13:44:10.555Z,102065.88
2023-02-15T13:46:43.752Z,102067.22
2023-02-15T13:49:13.850Z,102062.84
2023-02-15T13:51:42.752Z,102062.97
2023-02-15T13:54:27.955Z,102067.22
2023-02-15T13:57:13.149Z,102060.72
2023-02-15T13:59:59.752Z,102074.34
2023-02-15T14:02:37.661Z,102067.84
2023-02-15T14:05:07.719Z,102062.09
2023-02-15T14:07:52.631Z,102056.97
2023-02-15T14:10:39.429Z,102055.59
2023-02-15T14:13:18.436Z,102054.09
2023-02-15T14:16:08.085Z,102046.97
2023-02-15T14:18:42.220Z,102047.59
2023-02-15T14:21:15.338Z,102045.44
2023-02-15T14:24:00.509Z,102036.81
2023-02-15T14:26:59.243Z,102033.94
2023-02-15T14:29:25.557Z,102041.09
2023-02-15T14:31:54.326Z,102041.09
2023-02-15T14:34:23.064Z,102029.59
2023-02-15T14:36:50.468Z,102035.34
2023-02-15T14:39:54.289Z,102024.44
2023-02-15T14:42:37.768Z,102020.81
2023-02-15T14:45:21.206Z,102019.28
2023-02-15T14:47:49.894Z,102019.28
2023-02-15T14:50:31.437Z,102025.06
2023-02-15T14:53:16.197Z,102014.31
2023-02-15T14:55:42.525Z,102014.94
2023-02-15T14:58:11.836Z,102009.03
2023-02-15T15:00:39.126Z,102009.66
2023-02-15T15:03:12.709Z,102013.28
2023-02-15T15:05:47.252Z,102016.16
2023-02-15T15:08:22.611Z,102019.03
2023-02-15T15:10:49.622Z,102023.41
2023-02-15T15:13:31.146Z,102023.28
2023-02-15T15:15:57.597Z,102024.66
2023-02-15T15:18:42.817Z,102029.03
2023-02-15T15:21:09.238Z,102027.53
2023-02-15T15:23:42.629Z,102033.28
2023-02-15T15:26:22.753Z,102027.53
2023-02-15T15:28:48.998Z,102028.91
2023-02-15T15:31:19.948Z,102023.00
2023-02-15T15:33:51.741Z,102033.16
2023-02-15T15:36:23.999Z,102018.00
2023-02-15T15:39:09.332Z,102018.66
2023-02-15T15:41:45.431Z,102016.50
2023-02-15T15:44:29.840Z,102020.00
2023-02-15T15:47:00.027Z,102025.75
2023-02-15T15:49:28.524Z,102025.00
2023-02-15T15:51:55.096Z,102020.00
2023-02-15T15:54:22.033Z,102022.72
2023-02-15T15:56:49.564Z,102014.09
2023-02-15T15:59:23.291Z,102021.25
2023-02-15T16:01:49.756Z,102014.00
2023-02-15T16:04:26.881Z,102005.38
2023-02-15T16:06:53.226Z,102008.25
2023-02-15T16:09:20.461Z,101998.72
2023-02-15T16:11:47.655Z,101997.97
2023-02-15T16:14:15.134Z,102002.97
2023-02-15T16:16:41.526Z,101996.47
2023-02-15T16:19:15.716Z,101993.59
2023-02-15T16:21:42.035Z,101994.97
2023-02-15T16:24:15.128Z,102007.22
2023-02-15T16:26:47.387Z,102001.47
2023-02-15T16:29:16.934Z,101997.22
2023-02-15T16:31:43.412Z,102001.59
2023-02-15T16:34:18.861Z,102011.72
2023-02-15T16:36:45.185Z,102011.72
2023-02-15T16:39:17.851Z,102009.75
2023-02-15T16:41:46.949Z,102008.25
2023-02-15T16:44:15.885Z,102006.25
2023-02-15T16:46:43.010Z,102011.22
2023-02-15T16:49:15.433Z,102022.13
2023-02-15T16:51:42.102Z,102014.09
2023-02-15T16:54:08.727Z,102014.88
2023-02-15T16:56:35.108Z,102009.75
2023-02-15T16:59:01.466Z,102005.47
2023-02-15T17:01:29.120Z,101999.00
2023-02-15T17:04:14.161Z,101997.50
2023-02-15T17:06:40.534Z,101999.72
2023-02-15T17:09:07.282Z,101989.63
2023-02-15T17:11:34.444Z,102001.59
2023-02-15T17:14:07.639Z,102005.75
2023-02-15T17:16:37.335Z,102003.03
2023-02-15T17:19:08.699Z,102001.03
2023-02-15T17:21:37.623Z,102006.56
2023-02-15T17:24:05.110Z,101996.69
2023-02-15T17:26:32.297Z,101998.56
2023-02-15T17:28:59.313Z,101999.81
2023-02-15T17:31:29.362Z,102003.28
2023-02-15T17:33:57.450Z,102004.03
2023-02-15T17:36:24.524Z,102006.31
2023-02-15T17:39:12.221Z,102002.03
2023-02-15T17:41:38.705Z,102001.44
2023-02-15T17:44:05.077Z,102002.31
2023-02-15T17:46:35.487Z,102000.19
2023-02-15T17:49:02.012Z,101993.06
2023-02-15T17:51:28.346Z,101997.56
2023-02-15T17:54:13.459Z,101996.81
2023-02-15T17:56:39.828Z,102004.06
2023-02-15T17:59:07.594Z,102004.84
2023-02-15T18:01:55.868Z,101999.84
2023-02-15T18:04:40.690Z,102005.59
2023-02-15T18:07:27.687Z,102001.31
2023-02-15T18:10:12.527Z,101995.56
2023-02-15T18:12:39.158Z,101994.97
2023-02-15T18:15:05.868Z,101994.34
2023-02-15T18:17:45.312Z,101981.47
2023-02-15T18:20:21.803Z,101985.81
2023-02-15T18:22:48.139Z,101978.59
2023-02-15T18:25:14.857Z,101974.22
2023-02-15T18:27:41.184Z,101980.06
2023-02-15T18:30:08.439Z,101972.81
2023-02-15T18:32:35.710Z,101978.59
2023-02-15T18:35:02.049Z,101972.81
2023-02-15T18:37:30.231Z,101975.72
2023-02-15T18:39:56.620Z,101979.31
2023-02-15T18:42:31.502Z,101980.06
2023-02-15T18:44:58.439Z,101992.50
2023-02-15T18:47:24.765Z,101977.34
2023-02-15T18:49:51.085Z,101981.59
2023-02-15T18:52:17.918Z,101981.59
2023-02-15T18:54:44.899Z,101980.06
2023-02-15T18:57:12.982Z,101990.84
2023-02-15T18:59:39.307Z,101985.09
2023-02-15T19:02:11.024Z,101979.31
2023-02-15T19:04:37.371Z,101980.06
2023-02-15T19:07:03.712Z,101971.44
2023-02-15T19:09:30.084Z,101974.31
2023-02-15T19:11:56.462Z,101973.09
2023-02-15T19:14:29.658Z,101964.47
2023-02-15T19:16:56.435Z,101960.34
2023-02-15T19:19:22.839Z,101960.34
2023-02-15T19:21:49.306Z,101956.72
2023-02-15T19:24:19.148Z,101953.09
2023-02-15T19:26:46.198Z,101935.81
2023-02-15T19:29:13.500Z,101940.06
2023-02-15T19:31:40.018Z,101933.16
2023-02-15T19:34:11.149Z,101933.81
2023-02-15T19:36:37.485Z,101927.44
2023-02-15T19:39:03.829Z,101923.06
2023-02-15T19:41:30.808Z,101922.31
2023-02-15T19:43:57.169Z,101916.44
2023-02-15T19:46:23.595Z,101917.03
2023-02-15T19:48:51.091Z,101914.22
2023-02-15T19:51:17.499Z,101922.00
2023-02-15T19:53:43.843Z,101908.50
2023-02-15T19:56:11.063Z,101910.41
2023-02-15T19:58:37.393Z,101902.03
2023-02-15T20:01:04.110Z,101897.16
2023-02-15T20:03:30.701Z,101890.03
2023-02-15T20:05:57.023Z,101891.53
2023-02-15T20:08:23.431Z,101886.53
2023-02-15T20:10:49.868Z,101891.53
2023-02-15T20:13:16.458Z,101884.41
2023-02-15T20:15:42.909Z,101893.91
2023-02-15T20:18:09.319Z,101883.78
2023-02-15T20:20:45.671Z,101880.78
2023-02-15T20:23:18.591Z,101888.00
2023-02-15T20:25:44.923Z,101882.25
2023-02-15T20:28:14.855Z,101882.16
2023-02-15T20:30:41.199Z,101885.78
2023-02-15T20:33:07.610Z,101884.25
2023-02-15T20:35:33.955Z,101875.50
2023-02-15T20:38:01.129Z,101884.13
2023-02-15T20:40:28.064Z,101887.00
2023-02-15T20:42:54.407Z,101887.78
2023-02-15T20:45:21.475Z,101890.66
2023-02-15T20:47:50.683Z,101888.53
2023-02-15T20:50:20.744Z,101888.53
2023-02-15T20:52:47.188Z,101887.91
2023-02-15T20:55:14.200Z,101891.41
2023-02-15T20:57:40.529Z,101887.00
2023-02-15T21:00:08.583Z,101893.41
2023-02-15T21:02:34.908Z,101882.66
2023-02-15T21:05:01.828Z,101886.13
2023-02-15T21:07:28.205Z,101873.13
2023-02-15T21:09:54.526Z,101876.03
2023-02-15T21:12:22.082Z,101878.88
2023-02-15T21:14:48.572Z,101871.75
2023-02-15T21:17:15.103Z,101878.28
2023-02-15T21:19:41.586Z,101883.25
2023-02-15T21:22:10.437Z,101872.53
2023-02-15T21:24:36.768Z,101876.75
2023-02-15T21:27:03.470Z,101867.53
2023-02-15T21:29:29.891Z,101879.03
2023-02-15T21:31:58.368Z,101877.50
2023-02-15T21:34:24.852Z,101882.03
2023-02-15T21:36:51.230Z,101889.28
2023-02-15T21:39:24.055Z,101890.78
2023-02-15T21:42:09.310Z,101898.03
2023-02-15T21:44:54.156Z,101895.03
2023-02-15T21:47:40.038Z,101893.66
2023-02-15T21:50:26.790Z,101897.03
2023-02-15T21:52:53.232Z,101894.75
2023-02-15T21:55:19.563Z,101899.03
2023-02-15T21:57:45.885Z,101892.75
2023-02-15T22:00:16.701Z,101890.00
2023-02-15T22:02:43.257Z,101877.13
2023-02-15T22:05:12.960Z,101884.25
2023-02-15T22:07:39.285Z,101878.50
2023-02-15T22:10:05.879Z,101882.00
2023-02-15T22:12:32.219Z,101879.75
2023-02-15T22:14:58.623Z,101875.34
2023-02-15T22:17:25.746Z,101878.88
2023-02-15T22:19:52.108Z,101876.63
2023-02-15T22:22:18.455Z,101868.00
2023-02-15T22:24:44.793Z,101869.25
2023-02-15T22:27:31.475Z,101871.34
2023-02-15T22:29:57.804Z,101876.22
2023-02-15T22:32:25.058Z,101864.72
2023-02-15T22:34:51.597Z,101866.25
2023-02-15T22:37:17.956Z,101867.59
2023-02-15T22:39:44.294Z,101863.22
2023-02-15T22:42:16.960Z,101860.97
2023-02-15T22:44:43.288Z,101858.72
2023-02-15T22:47:10.752Z,101850.72
2023-02-15T22:49:37.181Z,101856.47
2023-02-15T22:52:05.771Z,101854.94
2023-02-15T22:54:32.108Z,101854.22
2023-02-15T22:56:58.443Z,101858.47
2023-02-15T22:59:31.968Z,101864.22
2023-02-15T23:01:58.334Z,101854.06
2023-02-15T23:04:25.298Z,101856.81
2023-02-15T23:06:53.249Z,101847.44
2023-02-15T23:09:19.682Z,101852.44
2023-02-15T23:11:46.193Z,101858.19
2023-02-15T23:14:29.077Z,101854.44
2023-02-15T23:16:55.483Z,101850.81
2023-02-15T23:19:21.840Z,101850.81
2023-02-15T23:21:48.196Z,101846.44
2023-02-15T23:24:18.354Z,101864.44
2023-02-15T23:26:44.799Z,101857.81
2023-02-15T23:29:20.712Z,101863.56
2023-02-15T23:31:48.137Z,101853.44
2023-02-15T23:34:19.630Z,101851.19
2023-02-15T23:36:45.962Z,101858.44
2023-02-15T23:39:34.658Z,101857.66
2023-02-15T23:42:01.810Z,101853.44
2023-02-15T23:44:28.141Z,101863.41
2023-02-15T23:46:56.396Z,101869.16
2023-02-15T23:49:22.845Z,101862.06
2023-02-15T23:51:49.936Z,101863.69
2023-02-15T23:54:16.701Z,101863.69
2023-02-15T23:56:43.162Z,101873.97
2023-02-15T23:59:12.156Z,101865.34
